Station: Garden Island  

  Atmospheric Gas Attenuation - ITU Rec 676-11   ----------------- dB/100km -----------------
Date Time Temp RH % AH g/m3 Dew Point Wind Direction Speed kph Gust kph Barometer mB Rainfall Since 9am 24GHz 47GHz 76GHz 122GHz 134GHz 241GHz
08/05 09:20 17.5 63 9.39 10.4 22 30 1030.4 0 21.1 26.7 41.8 109.7 105.4 363.2
08/05 09:10 17.1 63 9.17 10 28 33 1030.5 0 20.6 26.5 41.2 107.9 103.0 355.0
08/05 09:00 16.9 65 9.35 10.3 22 32 1030.5 0 21.0 26.8 42.0 110.1 105.7 364.1
08/05 08:50 16.7 65 9.24 10.1 22 28 1030.6 0 20.8 26.7 41.7 109.2 104.5 360.0
08/05 08:40 16.3 66 9.16 9.9 24 30 1030.6 0 20.6 26.7 41.5 108.9 104.0 358.2
08/05 08:30 15.9 68 9.21 10 22 32 1030.6 0 20.8 26.9 42.0 110.0 105.2 362.3
08/05 08:20 15.8 68 9.15 9.9 20 26 1030.6 0 20.6 26.8 41.8 109.5 104.5 360.0
08/05 08:10 15.6 68 9.04 9.7 19 24 1030.6 0 20.4 26.7 41.4 108.6 103.3 355.8
08/05 08:00 15.3 68 8.88 9.4 20 32 1030.6 0 20.1 26.6 40.9 107.3 101.6 349.7
08/05 07:50 15.2 69 8.96 9.6 17 20 1030.6 0 20.3 26.7 41.3 108.3 102.8 353.9
08/05 07:40 15 68 8.72 9.1 20 28 1030.4 0 19.8 26.4 40.4 105.9 99.9 343.6
08/05 07:30 14.9 69 8.79 9.3 20 30 1030.3 0 19.9 26.5 40.8 106.8 100.9 347.2
08/05 07:20 14.9 69 8.79 9.3 20 24 1030.1 0 19.9 26.5 40.8 106.8 100.9 347.2
08/05 07:10 14.7 69 8.69 9.1 22 28 1030 0 19.7 26.4 40.5 106.0 99.8 343.4
08/05 07:00 14.5 69 8.58 8.9 20 32 1029.9 0 19.5 26.3 40.1 105.0 98.6 339.1
08/05 06:50 14.3 70 8.6 8.9 15 19 1029.8 0 19.5 26.4 40.3 105.5 99.1 340.9
08/05 06:40 14.6 69 8.63 9 20 28 1029.7 0 19.6 26.3 40.3 105.4 99.1 341.0
08/05 06:30 14.6 68 8.51 8.8 22 32 1029.7 0 19.3 26.1 39.8 104.1 97.5 335.4
08/05 06:20 14.6 69 8.63 9 22 28 1029.7 0 19.6 26.3 40.3 105.4 99.1 341.0
08/05 06:10 14.6 69 8.63 9 22 28 1029.7 0 19.6 26.3 40.3 105.4 99.1 341.0
08/05 06:00 14.5 69 8.58 8.9 19 28 1029.7 0 19.5 26.3 40.1 105.0 98.6 339.1
08/05 05:50 14.8 68 8.61 9 22 26 1029.7 0 19.5 26.2 40.1 104.9 98.6 339.2
08/05 05:40 14.8 68 8.61 9 22 26 1029.7 0 19.5 26.2 40.1 104.9 98.6 339.2
08/05 05:30 14.8 68 8.61 9 22 30 1029.7 0 19.5 26.2 40.1 104.9 98.6 339.2
08/05 05:20 14.9 67 8.54 8.8 19 24 1029.7 0 19.4 26.1 39.7 104.1 97.6 335.5
08/05 05:10 14.9 67 8.54 8.8 20 30 1029.7 0 19.4 26.1 39.7 104.1 97.6 335.5
08/05 05:00 15.1 67 8.64 9 20 28 1029.6 0 19.6 26.2 40.0 104.9 98.6 339.2
08/05 04:50 15.2 66 8.57 8.9 20 24 1029.5 0 19.4 26.0 39.7 104.0 97.6 335.6
08/05 04:40 15.3 65 8.49 8.8 22 28 1029.5 0 19.3 25.9 39.3 103.0 96.4 331.5
08/05 04:30 15.4 65 8.54 8.9 20 30 1029.5 0 19.4 25.9 39.5 103.4 96.9 333.3
08/05 04:20 15.4 66 8.67 9.1 20 24 1029.4 0 19.6 26.1 40.0 104.8 98.6 339.3
08/05 04:10 15.4 65 8.54 8.9 20 26 1029.3 0 19.4 25.9 39.5 103.4 96.9 333.3
08/05 04:00 15.3 67 8.75 9.2 19 26 1029.2 0 19.8 26.3 40.4 105.7 99.8 343.3
08/05 03:50 15.3 67 8.75 9.2 17 22 1029.2 0 19.8 26.3 40.4 105.7 99.8 343.3
08/05 03:40 15.4 66 8.67 9.1 17 19 1029.2 0 19.6 26.1 40.0 104.7 98.6 339.2
08/05 03:30 15.6 65 8.64 9.1 19 28 1029.2 0 19.6 26.0 39.8 104.2 98.0 337.0
08/05 03:20 15.6 65 8.64 9.1 19 24 1029.2 0 19.6 26.0 39.8 104.2 98.0 337.0
08/05 03:10 15.6 65 8.64 9.1 19 22 1029.3 0 19.6 26.0 39.8 104.2 98.0 337.0
08/05 03:00 15.8 63 8.48 8.8 20 28 1029.2 0 19.2 25.7 39.0 102.2 95.6 328.9
08/05 02:50 15.7 64 8.56 8.9 20 22 1029.2 0 19.4 25.9 39.4 103.2 96.8 332.9
08/05 02:40 15.9 63 8.53 8.9 22 28 1029.2 0 19.3 25.8 39.2 102.6 96.2 330.7
08/05 02:30 15.8 63 8.48 8.8 17 30 1029.2 0 19.2 25.7 39.0 102.2 95.6 328.9
08/05 02:20 16.1 62 8.5 8.8 19 26 1029.1 0 19.2 25.7 39.0 102.0 95.5 328.5
08/05 02:10 16.3 62 8.6 9 22 28 1029 0 19.5 25.8 39.3 102.8 96.5 332.2
08/05 02:00 16.2 62 8.55 8.9 22 32 1029.1 0 19.3 25.7 39.1 102.4 96.0 330.3
08/05 01:50 16.3 62 8.6 9 20 26 1029.1 0 19.5 25.8 39.3 102.8 96.6 332.2
08/05 01:40 16.3 61 8.46 8.8 22 32 1029.1 0 19.2 25.5 38.7 101.4 94.8 325.9
08/05 01:30 16.3 62 8.6 9 20 30 1029.1 0 19.5 25.8 39.3 102.8 96.6 332.2
08/05 01:20 16.4 60 8.37 8.6 26 30 1029.1 0 19.0 25.4 38.3 100.3 93.5 321.4
08/05 01:10 16.5 59 8.28 8.5 22 26 1029.2 0 18.8 25.2 37.9 99.2 92.2 317.0
08/05 01:00 16.6 59 8.33 8.6 22 32 1029.1 0 18.9 25.3 38.1 99.6 92.7 318.8
08/05 00:50 16.4 60 8.37 8.6 20 24 1029.1 0 19.0 25.4 38.3 100.3 93.5 321.4
08/05 00:40 16.5 59 8.28 8.5 22 30 1029.2 0 18.8 25.2 37.9 99.2 92.2 317.0
08/05 00:30 16.3 61 8.46 8.8 15 24 1029.2 0 19.2 25.5 38.7 101.4 94.8 325.9
08/05 00:20 16.5 61 8.57 9 19 20 1029.1 0 19.4 25.7 39.0 102.2 95.9 330.0
08/05 00:10 16.6 60 8.48 8.8 15 17 1029 0 19.2 25.5 38.6 101.2 94.6 325.5
08/05 00:00 16.3 64 8.88 9.5 19 24 1029 0 20.0 26.2 40.4 105.8 100.2 344.9
07/05 23:50 16 65 8.86 9.4 15 19 1029 0 20.0 26.3 40.4 105.9 100.3 345.3
07/05 23:40 16.2 62 8.55 8.9 17 19 1029.1 0 19.3 25.7 39.1 102.4 96.0 330.3
07/05 23:30 16.4 62 8.65 9.1 17 20 1029 0 19.6 25.8 39.4 103.2 97.1 334.0
07/05 23:20 16.4 62 8.65 9.1 13 15 1029.1 0 19.6 25.8 39.4 103.2 97.1 334.0
07/05 23:10 16.4 63 8.79 9.3 13 15 1029.1 0 19.8 26.0 40.0 104.7 98.9 340.4
07/05 23:00 16.3 62 8.6 9 15 20 1029.2 0 19.5 25.8 39.3 102.8 96.6 332.2
07/05 22:50 16 63 8.58 9 15 17 1029.3 0 19.4 25.8 39.3 103.0 96.7 332.6
07/05 22:40 15.9 62 8.4 8.6 15 17 1029.3 0 19.0 25.6 38.7 101.3 94.5 324.9
07/05 22:30 16.1 61 8.36 8.6 13 17 1029.3 0 19.0 25.4 38.4 100.6 93.7 322.3
07/05 22:20 16.4 60 8.37 8.6 9 11 1029.1 0 19.0 25.4 38.3 100.3 93.5 321.4
07/05 22:10 16.4 61 8.51 8.9 15 17 1029.1 0 19.3 25.6 38.9 101.7 95.3 327.7
07/05 22:00 15.9 64 8.67 9.1 13 19 1029 0 19.6 26.0 39.7 104.1 98.0 337.0
07/05 21:50 15.6 63 8.38 8.6 13 15 1029.1 0 19.0 25.6 38.7 101.4 94.6 325.1
07/05 21:40 16.1 65 8.91 9.5 11 11 1029 0 20.1 26.3 40.6 106.3 100.8 347.1
07/05 21:30 16.2 64 8.83 9.4 11 13 1029 0 19.9 26.2 40.2 105.4 99.7 343.0
07/05 21:20 16.4 62 8.65 9.1 11 13 1028.9 0 19.6 25.8 39.4 103.2 97.1 334.0
07/05 21:10 16.9 60 8.63 9.1 11 13 1028.8 0 19.5 25.6 39.1 102.3 96.2 331.0
07/05 21:00 17 59 8.54 8.9 13 17 1028.8 0 19.3 25.5 38.7 101.3 94.9 326.5
07/05 20:50 17.3 58 8.54 9 13 13 1028.6 0 19.3 25.4 38.5 100.9 94.5 325.2
07/05 20:40 17.3 55 8.1 8.2 15 19 1028.6 0 18.3 24.7 36.8 96.4 89.0 305.8
07/05 20:30 17.3 55 8.1 8.2 15 20 1028.6 0 18.3 24.7 36.8 96.4 89.0 305.8
07/05 20:20 17.4 55 8.15 8.3 17 19 1028.6 0 18.4 24.7 37.0 96.8 89.5 307.6
07/05 20:10 17.4 58 8.6 9.1 13 15 1028.6 0 19.4 25.4 38.7 101.4 95.2 327.5
07/05 20:00 17.7 58 8.75 9.3 15 20 1028.5 0 19.7 25.6 39.1 102.5 96.7 332.9
07/05 19:50 17.7 56 8.45 8.8 17 20 1028.4 0 19.1 25.1 38.0 99.4 92.9 319.6
07/05 19:40 17.6 58 8.7 9.2 13 17 1028.4 0 19.6 25.5 39.0 102.1 96.2 331.1
07/05 19:30 17.9 53 8.09 8.2 15 20 1028.3 0 18.3 24.5 36.5 95.5 88.2 303.0
07/05 19:20 18 53 8.14 8.3 13 15 1028.3 0 18.4 24.5 36.7 95.9 88.7 304.8
07/05 19:10 18.2 52 8.08 8.2 17 19 1028.2 0 18.3 24.4 36.3 95.1 87.7 301.4
07/05 19:00 18.3 53 8.29 8.6 17 22 1028.2 0 18.7 24.7 37.1 97.0 90.2 310.2
07/05 18:50 18.3 53 8.29 8.6 17 19 1028.1 0 18.7 24.7 37.1 97.0 90.2 310.1
07/05 18:40 18.6 53 8.43 8.8 19 20 1028.1 0 19.0 24.8 37.5 98.1 91.6 315.1
07/05 18:30 18.2 58 9.01 9.8 13 19 1028 0 20.2 25.8 39.9 104.5 99.4 342.2
07/05 18:20 18.4 58 9.12 10 11 13 1028 0 20.4 25.9 40.2 105.4 100.5 346.3
07/05 18:10 18.9 51 8.26 8.6 13 15 1028 0 18.6 24.5 36.7 96.0 89.1 306.5
07/05 18:00 19.1 50 8.2 8.4 17 20 1027.9 0 18.5 24.3 36.4 95.2 88.2 303.1
07/05 17:50 19.3 50 8.29 8.6 19 22 1027.9 0 18.7 24.4 36.6 95.8 89.0 306.3
07/05 17:40 19.5 51 8.56 9.1 17 20 1027.7 0 19.2 24.8 37.5 98.2 92.1 317.0
07/05 17:30 19.6 50 8.44 8.9 17 20 1027.6 0 19.0 24.5 37.0 96.9 90.5 311.5
07/05 17:20 20.1 51 8.86 9.7 17 20 1027.6 0 19.8 25.0 38.4 100.5 95.1 327.6
07/05 17:10 20.4 49 8.67 9.3 17 20 1027.6 0 19.4 24.7 37.5 98.2 92.4 318.2
07/05 17:00 20.8 47 8.51 9.1 19 26 1027.6 0 19.1 24.3 36.7 96.2 90.0 309.8
07/05 16:50 21 47 8.61 9.3 20 22 1027.6 0 19.3 24.4 37.0 96.9 91.0 313.3

Last Refresh: 08-May-2026 11:03:25

Bureau of Meteorology